createdAt,value
2023-05-10T00:00:18.009Z,92.36
2023-05-10T00:01:17.788Z,92.35
2023-05-10T00:02:17.997Z,92.37
2023-05-10T00:03:17.797Z,92.36
2023-05-10T00:04:18.060Z,92.36
2023-05-10T00:05:17.772Z,92.37
2023-05-10T00:06:18.239Z,92.38
2023-05-10T00:07:18.272Z,92.40
2023-05-10T00:08:18.296Z,92.40
2023-05-10T00:09:17.695Z,92.39
2023-05-10T00:10:17.811Z,92.37
2023-05-10T00:11:18.997Z,92.34
2023-05-10T00:12:18.410Z,92.30
2023-05-10T00:13:17.677Z,92.29
2023-05-10T00:14:17.983Z,92.27
2023-05-10T00:15:17.970Z,92.28
2023-05-10T00:16:17.971Z,92.27
2023-05-10T00:17:18.562Z,92.25
2023-05-10T00:18:17.559Z,92.23
2023-05-10T00:19:17.565Z,92.23
2023-05-10T00:20:17.932Z,92.22
2023-05-10T00:21:17.566Z,92.21
2023-05-10T00:22:17.519Z,92.21
2023-05-10T00:23:17.514Z,92.21
2023-05-10T00:24:17.492Z,92.23
2023-05-10T00:25:17.506Z,92.24
2023-05-10T00:26:17.491Z,92.23
2023-05-10T00:27:17.476Z,92.22
2023-05-10T00:28:17.439Z,92.20
2023-05-10T00:29:17.562Z,92.18
2023-05-10T00:30:17.694Z,92.19
2023-05-10T00:31:17.444Z,92.21
2023-05-10T00:32:17.463Z,92.19
2023-05-10T00:33:17.402Z,92.18
2023-05-10T00:34:17.385Z,92.19
2023-05-10T00:35:17.528Z,92.19
2023-05-10T00:36:17.349Z,92.19
2023-05-10T00:37:17.374Z,92.16
2023-05-10T00:38:17.574Z,92.17
2023-05-10T00:39:17.605Z,92.16
2023-05-10T00:40:17.548Z,92.18
2023-05-10T00:41:17.303Z,92.18
2023-05-10T00:42:17.302Z,92.18
2023-05-10T00:43:17.285Z,92.19
2023-05-10T00:44:17.453Z,92.18
2023-05-10T00:45:17.285Z,92.21
2023-05-10T00:46:17.524Z,92.21
2023-05-10T00:47:17.246Z,92.23
2023-05-10T00:48:17.239Z,92.25
2023-05-10T00:49:17.244Z,92.29
2023-05-10T00:50:17.456Z,92.30
2023-05-10T00:51:17.194Z,92.32
2023-05-10T00:52:17.198Z,92.33
2023-05-10T00:53:17.181Z,92.35
2023-05-10T00:54:17.578Z,92.36
2023-05-10T00:55:17.466Z,92.37
2023-05-10T00:56:17.120Z,92.38
2023-05-10T00:57:17.137Z,92.38
2023-05-10T00:58:17.132Z,92.37
2023-05-10T00:59:17.111Z,92.35
2023-05-10T01:00:17.241Z,92.33
2023-05-10T01:01:17.113Z,92.32
2023-05-10T01:02:17.562Z,92.31
2023-05-10T01:03:17.190Z,92.30
2023-05-10T01:04:17.027Z,92.24
2023-05-10T01:05:17.135Z,92.20
2023-05-10T01:06:17.001Z,92.22
2023-05-10T01:07:16.999Z,92.27
2023-05-10T01:08:17.004Z,92.28
2023-05-10T01:09:17.007Z,92.29
2023-05-10T01:10:17.209Z,92.30
2023-05-10T01:11:16.977Z,92.30
2023-05-10T01:12:16.992Z,92.25
2023-05-10T01:13:16.993Z,92.24
2023-05-10T01:14:16.947Z,92.21
2023-05-10T01:15:16.920Z,92.21
2023-05-10T01:16:17.187Z,92.18
2023-05-10T01:17:16.893Z,92.17
2023-05-10T01:18:17.606Z,92.17
2023-05-10T01:19:16.877Z,92.11
2023-05-10T01:20:17.118Z,92.11
2023-05-10T01:21:17.608Z,92.13
2023-05-10T01:22:16.820Z,92.14
2023-05-10T01:23:16.830Z,92.10
2023-05-10T01:24:16.942Z,92.09
2023-05-10T01:25:16.787Z,92.09
2023-05-10T01:26:16.798Z,92.08
2023-05-10T01:27:16.832Z,92.11
2023-05-10T01:28:16.743Z,92.08
2023-05-10T01:29:16.759Z,92.07
2023-05-10T01:30:16.721Z,92.03
2023-05-10T01:31:16.759Z,92.03
2023-05-10T01:32:17.015Z,92.02
2023-05-10T01:33:16.729Z,92.02
2023-05-10T01:34:16.719Z,91.99
2023-05-10T01:35:16.677Z,91.99
2023-05-10T01:36:17.136Z,91.99
2023-05-10T01:37:16.660Z,91.96
2023-05-10T01:38:16.661Z,92.00
2023-05-10T01:39:16.647Z,92.00
2023-05-10T01:40:16.915Z,91.97
2023-05-10T01:41:16.633Z,91.95
2023-05-10T01:42:16.620Z,91.96
2023-05-10T01:43:16.576Z,91.97
2023-05-10T01:44:16.602Z,92.00
2023-05-10T01:45:16.585Z,91.97
2023-05-10T01:46:16.598Z,91.98
2023-05-10T01:47:16.564Z,91.97
2023-05-10T01:48:16.644Z,91.97
2023-05-10T01:49:16.518Z,91.93
2023-05-10T01:50:16.997Z,91.93
2023-05-10T01:51:16.501Z,91.94
2023-05-10T01:52:16.469Z,91.92
2023-05-10T01:53:16.472Z,91.93
2023-05-10T01:54:16.442Z,91.96
2023-05-10T01:55:16.447Z,92.00
2023-05-10T01:56:16.404Z,92.03
2023-05-10T01:57:16.585Z,92.06
2023-05-10T01:58:16.392Z,92.08
2023-05-10T01:59:16.424Z,92.08
2023-05-10T02:00:16.635Z,92.10
2023-05-10T02:01:16.421Z,92.10
2023-05-10T02:02:16.354Z,92.05
2023-05-10T02:03:16.409Z,91.95
2023-05-10T02:04:16.315Z,91.90
2023-05-10T02:05:16.343Z,91.69
2023-05-10T02:06:16.637Z,91.70
2023-05-10T02:07:16.372Z,91.70
2023-05-10T02:08:16.271Z,91.59
2023-05-10T02:09:17.062Z,91.56
2023-05-10T02:10:16.514Z,91.45
2023-05-10T02:11:16.245Z,91.28
2023-05-10T02:12:16.255Z,91.30
2023-05-10T02:13:16.301Z,91.25
2023-05-10T02:14:16.208Z,91.28
2023-05-10T02:15:16.206Z,91.33
2023-05-10T02:16:16.429Z,91.25
2023-05-10T02:17:16.178Z,91.27
2023-05-10T02:18:16.156Z,91.30
2023-05-10T02:19:16.157Z,91.37
2023-05-10T02:20:16.354Z,91.38
2023-05-10T02:21:16.584Z,91.39
2023-05-10T02:22:16.570Z,91.38
2023-05-10T02:23:16.118Z,91.15
2023-05-10T02:24:16.075Z,90.84
2023-05-10T02:25:16.107Z,90.88
2023-05-10T02:26:16.144Z,90.87
2023-05-10T02:27:16.071Z,90.89
2023-05-10T02:28:16.270Z,90.88
2023-05-10T02:29:16.103Z,90.94
2023-05-10T02:30:16.661Z,90.90
2023-05-10T02:31:16.049Z,90.90
2023-05-10T02:32:16.018Z,90.92
2023-05-10T02:33:16.134Z,90.88
2023-05-10T02:34:16.080Z,90.82
2023-05-10T02:35:16.023Z,90.83
2023-05-10T02:36:15.964Z,90.85
2023-05-10T02:37:16.675Z,90.83
2023-05-10T02:38:16.661Z,90.80
2023-05-10T02:39:15.939Z,90.79
2023-05-10T02:40:16.123Z,90.79
2023-05-10T02:41:15.932Z,90.78
2023-05-10T02:42:15.891Z,90.80
2023-05-10T02:43:15.884Z,90.78
2023-05-10T02:44:15.978Z,90.86
2023-05-10T02:45:16.604Z,90.89
2023-05-10T02:46:16.608Z,90.89
2023-05-10T02:47:16.667Z,90.88
2023-05-10T02:48:16.514Z,90.88
2023-05-10T02:49:15.811Z,90.86
2023-05-10T02:50:16.034Z,90.86
2023-05-10T02:51:16.642Z,90.81
2023-05-10T02:52:15.857Z,90.68
2023-05-10T02:53:16.682Z,90.76
2023-05-10T02:54:15.993Z,90.86
2023-05-10T02:55:16.306Z,90.92
2023-05-10T02:56:16.647Z,90.97
2023-05-10T02:57:15.722Z,91.02
2023-05-10T02:58:15.719Z,91.05
2023-05-10T02:59:15.705Z,91.08
2023-05-10T03:00:15.914Z,91.12
2023-05-10T03:01:15.711Z,91.23
2023-05-10T03:02:15.676Z,91.26
2023-05-10T03:03:15.694Z,91.29
2023-05-10T03:04:15.657Z,91.31
2023-05-10T03:05:15.646Z,91.30
2023-05-10T03:06:15.614Z,91.30
2023-05-10T03:07:15.684Z,91.28
2023-05-10T03:08:15.569Z,91.32
2023-05-10T03:09:15.695Z,91.36
2023-05-10T03:10:15.869Z,91.41
2023-05-10T03:11:15.698Z,91.42
2023-05-10T03:12:15.572Z,91.40
2023-05-10T03:13:15.717Z,91.45
2023-05-10T03:14:15.513Z,91.46
2023-05-10T03:15:15.485Z,91.54
2023-05-10T03:16:15.679Z,91.60
2023-05-10T03:17:15.697Z,91.63
2023-05-10T03:18:15.696Z,91.69
2023-05-10T03:19:15.634Z,91.76
2023-05-10T03:20:15.613Z,91.85
2023-05-10T03:21:15.423Z,91.91
2023-05-10T03:22:15.700Z,91.94
2023-05-10T03:23:15.713Z,91.97
2023-05-10T03:24:15.396Z,91.99
2023-05-10T03:25:15.383Z,92.06
2023-05-10T03:26:15.413Z,92.19
2023-05-10T03:27:15.701Z,92.23
2023-05-10T03:28:15.359Z,92.19
2023-05-10T03:29:15.345Z,92.23
2023-05-10T03:30:15.603Z,92.22
2023-05-10T03:31:15.351Z,92.21
2023-05-10T03:32:15.725Z,92.19
2023-05-10T03:33:15.289Z,92.21
2023-05-10T03:34:15.281Z,92.22
2023-05-10T03:35:15.272Z,92.19
2023-05-10T03:36:15.254Z,92.19
2023-05-10T03:37:15.229Z,92.20
2023-05-10T03:38:15.270Z,92.19
2023-05-10T03:39:15.707Z,92.20
2023-05-10T03:40:16.033Z,92.20
2023-05-10T03:41:15.711Z,92.17
2023-05-10T03:42:15.188Z,92.13
2023-05-10T03:43:15.183Z,92.12
2023-05-10T03:44:15.194Z,92.10
2023-05-10T03:45:15.136Z,92.10
2023-05-10T03:46:15.169Z,92.07
2023-05-10T03:47:15.112Z,92.10
2023-05-10T03:48:15.163Z,92.10
2023-05-10T03:49:15.397Z,92.07
2023-05-10T03:50:15.399Z,92.10
2023-05-10T03:51:15.121Z,92.10
2023-05-10T03:52:15.068Z,92.11
2023-05-10T03:53:15.051Z,92.10
2023-05-10T03:54:15.083Z,92.08
2023-05-10T03:55:15.009Z,92.04
2023-05-10T03:56:15.624Z,92.02
2023-05-10T03:57:15.019Z,92.00
2023-05-10T03:58:15.005Z,91.94
2023-05-10T03:59:15.701Z,91.96
2023-05-10T04:00:15.125Z,91.96
2023-05-10T04:01:14.944Z,91.94
2023-05-10T04:02:15.004Z,91.89
2023-05-10T04:03:14.990Z,91.88
2023-05-10T04:04:15.014Z,91.86
2023-05-10T04:05:15.197Z,91.81
2023-05-10T04:06:14.992Z,91.77
2023-05-10T04:07:14.909Z,91.73
2023-05-10T04:08:14.887Z,91.63
2023-05-10T04:09:14.889Z,91.56
2023-05-10T04:10:15.052Z,91.58
2023-05-10T04:11:15.530Z,91.58
2023-05-10T04:12:14.833Z,91.58
2023-05-10T04:13:15.935Z,91.57
2023-05-10T04:14:15.502Z,91.56
2023-05-10T04:15:15.715Z,91.53
2023-05-10T04:16:14.834Z,91.50
2023-05-10T04:17:14.808Z,91.48
2023-05-10T04:18:14.764Z,91.49
2023-05-10T04:19:14.755Z,91.49
2023-05-10T04:20:14.986Z,91.48
2023-05-10T04:21:14.744Z,91.47
2023-05-10T04:22:14.708Z,91.47
2023-05-10T04:23:14.696Z,91.47
2023-05-10T04:24:14.714Z,91.47
2023-05-10T04:25:14.665Z,91.48
2023-05-10T04:26:15.602Z,91.47
2023-05-10T04:27:15.596Z,91.47
2023-05-10T04:28:14.646Z,91.49
2023-05-10T04:29:14.661Z,91.48
2023-05-10T04:30:14.844Z,91.50
2023-05-10T04:31:14.676Z,91.52
2023-05-10T04:32:14.758Z,91.53
2023-05-10T04:33:14.573Z,91.53
2023-05-10T04:34:14.599Z,91.53
2023-05-10T04:35:14.558Z,91.57
2023-05-10T04:36:14.567Z,91.59
2023-05-10T04:37:14.902Z,91.62
2023-05-10T04:38:14.561Z,91.61
2023-05-10T04:39:14.540Z,91.67
2023-05-10T04:40:14.592Z,91.68
2023-05-10T04:41:14.472Z,91.68
2023-05-10T04:42:14.503Z,91.69
2023-05-10T04:43:14.450Z,91.69
2023-05-10T04:44:14.484Z,91.72
2023-05-10T04:45:14.464Z,91.73
2023-05-10T04:46:14.468Z,91.73
2023-05-10T04:47:14.423Z,91.72
2023-05-10T04:48:14.412Z,91.74
2023-05-10T04:49:14.408Z,91.74
2023-05-10T04:50:14.522Z,91.73
2023-05-10T04:51:14.374Z,91.77
2023-05-10T04:52:14.362Z,91.75
2023-05-10T04:53:15.953Z,91.72
2023-05-10T04:54:14.347Z,91.72
2023-05-10T04:55:14.335Z,91.74
2023-05-10T04:56:14.322Z,91.72
2023-05-10T04:57:14.305Z,91.73
2023-05-10T04:58:14.290Z,91.72
2023-05-10T04:59:14.270Z,91.76
2023-05-10T05:00:14.338Z,91.77
2023-05-10T05:01:14.646Z,91.79
2023-05-10T05:02:14.251Z,91.83
2023-05-10T05:03:14.313Z,91.85
2023-05-10T05:04:14.248Z,91.82
2023-05-10T05:05:14.209Z,91.82
2023-05-10T05:06:14.211Z,91.84
2023-05-10T05:07:14.175Z,91.84
2023-05-10T05:08:14.185Z,91.87
2023-05-10T05:09:14.170Z,91.89
2023-05-10T05:10:14.879Z,91.90
2023-05-10T05:11:14.775Z,91.90
2023-05-10T05:12:14.124Z,91.88
2023-05-10T05:13:14.197Z,91.89
2023-05-10T05:14:14.100Z,91.88
2023-05-10T05:15:14.103Z,91.88
2023-05-10T05:16:14.181Z,91.85
2023-05-10T05:17:14.064Z,91.82
2023-05-10T05:18:14.066Z,91.84
2023-05-10T05:19:14.027Z,91.84
2023-05-10T05:20:14.163Z,91.86
2023-05-10T05:21:14.022Z,91.87
2023-05-10T05:22:14.019Z,91.89
2023-05-10T05:23:14.278Z,91.91
2023-05-10T05:24:13.993Z,91.91
2023-05-10T05:25:14.297Z,91.92
2023-05-10T05:26:14.039Z,91.94
2023-05-10T05:27:13.942Z,91.94
2023-05-10T05:28:13.943Z,91.96
2023-05-10T05:29:13.906Z,91.95
2023-05-10T05:30:14.105Z,91.97
2023-05-10T05:31:13.912Z,91.99
2023-05-10T05:32:13.926Z,92.01
2023-05-10T05:33:14.423Z,92.02
2023-05-10T05:34:13.868Z,92.00
2023-05-10T05:35:14.555Z,92.03
2023-05-10T05:36:13.855Z,92.04
2023-05-10T05:37:13.870Z,92.02
2023-05-10T05:38:13.826Z,92.02
2023-05-10T05:39:13.796Z,92.05
2023-05-10T05:40:13.831Z,92.08
2023-05-10T05:41:14.557Z,92.08
2023-05-10T05:42:14.524Z,92.04
2023-05-10T05:43:13.775Z,92.04
2023-05-10T05:44:13.763Z,92.05
2023-05-10T05:45:13.855Z,92.03
2023-05-10T05:46:13.757Z,92.01
2023-05-10T05:47:13.700Z,91.98
2023-05-10T05:48:13.740Z,91.96
2023-05-10T05:49:14.669Z,91.97
2023-05-10T05:50:13.708Z,91.97
2023-05-10T05:51:13.654Z,91.96
2023-05-10T05:52:13.659Z,91.93
2023-05-10T05:53:13.668Z,91.94
2023-05-10T05:54:13.626Z,91.97
2023-05-10T05:55:13.628Z,91.95
2023-05-10T05:56:13.816Z,91.94
2023-05-10T05:57:13.828Z,91.91
2023-05-10T05:58:13.818Z,91.92
2023-05-10T05:59:13.818Z,91.88
2023-05-10T06:00:13.585Z,91.79
2023-05-10T06:01:13.545Z,91.69
2023-05-10T06:02:13.589Z,91.65
2023-05-10T06:03:13.605Z,91.50
2023-05-10T06:04:13.624Z,91.40
2023-05-10T06:05:13.743Z,91.39
2023-05-10T06:06:13.496Z,91.30
2023-05-10T06:07:13.469Z,91.26
2023-05-10T06:08:13.468Z,91.20
2023-05-10T06:09:13.457Z,91.14
2023-05-10T06:10:13.492Z,91.09
2023-05-10T06:11:13.435Z,90.97
2023-05-10T06:12:13.437Z,90.89
2023-05-10T06:13:14.091Z,90.81
2023-05-10T06:14:13.427Z,90.71
2023-05-10T06:15:14.111Z,90.67
2023-05-10T06:16:13.504Z,90.66
2023-05-10T06:17:13.358Z,90.69
2023-05-10T06:18:13.392Z,90.74
2023-05-10T06:19:13.346Z,90.79
2023-05-10T06:20:13.929Z,90.79
2023-05-10T06:21:14.208Z,90.74
2023-05-10T06:22:14.257Z,90.62
2023-05-10T06:23:13.280Z,90.44
2023-05-10T06:24:13.299Z,90.51
2023-05-10T06:25:13.271Z,90.56
2023-05-10T06:26:13.275Z,90.50
2023-05-10T06:27:13.247Z,90.48
2023-05-10T06:28:13.289Z,90.42
2023-05-10T06:29:14.115Z,90.31
2023-05-10T06:30:13.817Z,90.15
2023-05-10T06:31:13.205Z,89.48
2023-05-10T06:32:13.183Z,89.07
2023-05-10T06:33:13.189Z,88.80
2023-05-10T06:34:13.174Z,88.67
2023-05-10T06:35:13.127Z,88.53
2023-05-10T06:36:13.159Z,88.42
2023-05-10T06:37:14.091Z,88.23
2023-05-10T06:38:14.269Z,88.05
2023-05-10T06:39:13.132Z,88.15
2023-05-10T06:40:13.125Z,88.22
2023-05-10T06:41:13.078Z,88.09
2023-05-10T06:42:13.863Z,87.99
2023-05-10T06:43:13.880Z,87.63
2023-05-10T06:44:13.853Z,87.53
2023-05-10T06:45:14.175Z,87.35
2023-05-10T06:46:13.048Z,87.40
2023-05-10T06:47:13.039Z,87.30
2023-05-10T06:48:13.060Z,87.09
2023-05-10T06:49:12.979Z,86.47
2023-05-10T06:50:13.149Z,86.33
2023-05-10T06:51:13.157Z,86.27
2023-05-10T06:52:12.944Z,86.13
2023-05-10T06:53:13.373Z,86.02
2023-05-10T06:54:13.253Z,86.03
2023-05-10T06:55:13.295Z,85.97
2023-05-10T06:56:13.322Z,86.08
2023-05-10T06:57:27.708Z,86.19
2023-05-10T06:58:13.873Z,86.22
2023-05-10T06:59:12.957Z,85.86
2023-05-10T07:00:12.910Z,85.63
2023-05-10T07:01:12.971Z,85.26
2023-05-10T07:02:12.843Z,84.72
2023-05-10T07:03:12.959Z,84.46
2023-05-10T07:04:12.808Z,84.48
2023-05-10T07:05:12.836Z,84.25
2023-05-10T07:06:21.707Z,84.26
2023-05-10T07:07:13.876Z,84.27
2023-05-10T07:08:12.872Z,84.24
2023-05-10T07:09:12.885Z,84.23
2023-05-10T07:10:12.877Z,84.34
2023-05-10T07:11:12.760Z,84.13
2023-05-10T07:12:14.983Z,83.81
2023-05-10T07:13:12.958Z,84.05
2023-05-10T07:14:12.905Z,84.32
2023-05-10T07:15:12.693Z,84.41
2023-05-10T07:16:12.711Z,84.40
2023-05-10T07:17:12.957Z,84.34
2023-05-10T07:18:13.035Z,84.14
2023-05-10T07:19:12.886Z,83.89
2023-05-10T07:20:12.627Z,83.82
2023-05-10T07:21:12.671Z,83.66
2023-05-10T07:22:12.891Z,83.75
2023-05-10T07:23:12.588Z,83.80
2023-05-10T07:24:12.566Z,83.66
2023-05-10T07:25:12.580Z,83.66
2023-05-10T07:26:12.591Z,83.76
2023-05-10T07:27:12.905Z,83.85
2023-05-10T07:28:12.893Z,83.86
2023-05-10T07:29:12.891Z,83.92
2023-05-10T07:30:12.655Z,84.10
2023-05-10T07:31:12.504Z,83.95
2023-05-10T07:32:12.527Z,83.88
2023-05-10T07:33:12.538Z,84.00
2023-05-10T07:34:12.467Z,83.91
2023-05-10T07:35:12.613Z,83.64
2023-05-10T07:36:12.455Z,83.68
2023-05-10T07:37:12.675Z,83.96
2023-05-10T07:38:12.708Z,84.03
2023-05-10T07:39:16.454Z,84.07
2023-05-10T07:40:14.470Z,84.36
2023-05-10T07:41:12.799Z,84.26
2023-05-10T07:42:12.855Z,84.20
2023-05-10T07:43:12.864Z,84.25
2023-05-10T07:44:12.891Z,84.41
2023-05-10T07:45:12.908Z,84.47
2023-05-10T07:46:12.923Z,84.50
2023-05-10T07:47:12.903Z,84.28
2023-05-10T07:48:12.905Z,84.15
2023-05-10T07:49:12.904Z,84.18
2023-05-10T07:50:12.814Z,84.17
2023-05-10T07:51:12.909Z,84.14
2023-05-10T07:52:12.899Z,84.31
2023-05-10T07:53:13.203Z,84.36
2023-05-10T07:54:12.549Z,84.43
2023-05-10T07:55:13.044Z,84.59
2023-05-10T07:56:12.373Z,84.94
2023-05-10T07:57:12.372Z,85.24
2023-05-10T07:58:12.476Z,85.73
2023-05-10T07:59:13.150Z,86.03
2023-05-10T08:00:12.303Z,86.26
2023-05-10T08:01:12.311Z,85.95
2023-05-10T08:02:13.455Z,85.14
2023-05-10T08:03:13.482Z,84.83
2023-05-10T08:04:13.237Z,85.21
2023-05-10T08:05:13.115Z,85.76
2023-05-10T08:06:12.993Z,86.14
2023-05-10T08:07:12.917Z,86.49
2023-05-10T08:08:13.311Z,86.71
2023-05-10T08:09:13.229Z,86.85
2023-05-10T08:10:12.256Z,87.03
2023-05-10T08:11:13.034Z,87.30
2023-05-10T08:12:12.931Z,87.41
2023-05-10T08:13:12.834Z,87.24
2023-05-10T08:14:12.763Z,87.45
2023-05-10T08:15:13.157Z,87.70
2023-05-10T08:16:11.992Z,87.47
2023-05-10T08:17:11.978Z,87.20
2023-05-10T08:18:12.017Z,86.95
2023-05-10T08:19:11.993Z,86.92
2023-05-10T08:20:11.948Z,86.87
2023-05-10T08:21:11.942Z,86.39
2023-05-10T08:22:11.929Z,86.14
2023-05-10T08:23:11.934Z,85.63
2023-05-10T08:24:11.926Z,85.68
2023-05-10T08:25:11.940Z,86.17
2023-05-10T08:26:11.902Z,86.14
2023-05-10T08:27:11.951Z,86.24
2023-05-10T08:28:12.095Z,86.54
2023-05-10T08:29:11.831Z,86.65
2023-05-10T08:30:11.842Z,86.71
2023-05-10T08:31:11.855Z,86.81
2023-05-10T08:32:11.770Z,86.79
2023-05-10T08:33:11.835Z,86.65
2023-05-10T08:34:11.936Z,86.37
2023-05-10T08:35:11.936Z,86.35
2023-05-10T08:36:11.929Z,85.99
2023-05-10T08:37:11.734Z,85.77
2023-05-10T08:38:11.700Z,85.85
2023-05-10T08:39:22.851Z,85.63
2023-05-10T08:40:12.691Z,85.58
2023-05-10T08:41:11.704Z,85.70
2023-05-10T08:42:11.668Z,85.67
2023-05-10T08:43:11.662Z,85.73
2023-05-10T08:44:11.942Z,85.76
2023-05-10T08:45:11.647Z,85.78
2023-05-10T08:46:11.911Z,85.61
2023-05-10T08:47:11.978Z,85.12
2023-05-10T08:48:11.595Z,84.57
2023-05-10T08:49:11.603Z,84.07
2023-05-10T08:50:11.952Z,84.09
2023-05-10T08:51:11.951Z,84.39
2023-05-10T08:52:11.943Z,83.98
2023-05-10T08:53:11.581Z,80.28
2023-05-10T08:54:11.539Z,80.16
2023-05-10T08:55:11.534Z,82.34
2023-05-10T08:56:11.502Z,82.42
2023-05-10T08:57:11.511Z,83.04
2023-05-10T08:58:11.977Z,83.36
2023-05-10T08:59:11.974Z,83.32
2023-05-10T09:00:11.950Z,83.68
2023-05-10T09:01:12.038Z,84.04
2023-05-10T09:02:11.427Z,83.20
2023-05-10T09:03:11.462Z,82.26
2023-05-10T09:04:11.491Z,82.00
2023-05-10T09:05:11.630Z,82.12
2023-05-10T09:06:11.389Z,82.71
2023-05-10T09:07:11.577Z,83.18
2023-05-10T09:08:11.630Z,83.28
2023-05-10T09:09:11.372Z,83.59
2023-05-10T09:10:11.671Z,83.95
2023-05-10T09:11:11.354Z,84.59
2023-05-10T09:12:11.318Z,83.85
2023-05-10T09:13:11.323Z,83.40
2023-05-10T09:14:11.325Z,83.39
2023-05-10T09:15:11.300Z,83.40
2023-05-10T09:16:21.336Z,82.99
2023-05-10T09:17:12.291Z,82.64
2023-05-10T09:18:11.998Z,82.66
2023-05-10T09:19:11.412Z,82.67
2023-05-10T09:20:11.208Z,81.43
2023-05-10T09:21:11.622Z,81.20
2023-05-10T09:22:11.193Z,80.78
2023-05-10T09:23:11.783Z,80.41
2023-05-10T09:24:11.979Z,80.31
2023-05-10T09:25:12.018Z,80.29
2023-05-10T09:26:11.966Z,80.19
2023-05-10T09:27:11.151Z,80.05
2023-05-10T09:28:11.977Z,79.42
2023-05-10T09:29:11.983Z,78.99
2023-05-10T09:30:11.979Z,78.85
2023-05-10T09:31:12.009Z,78.53
2023-05-10T09:32:13.874Z,78.42
2023-05-10T09:33:11.986Z,79.50
2023-05-10T09:34:11.067Z,79.84
2023-05-10T09:35:11.062Z,79.82
2023-05-10T09:36:11.028Z,79.58
2023-05-10T09:37:11.954Z,78.94
2023-05-10T09:38:11.014Z,78.31
2023-05-10T09:39:11.013Z,78.75
2023-05-10T09:40:11.029Z,80.37
2023-05-10T09:41:11.012Z,80.62
2023-05-10T09:42:10.982Z,81.51
2023-05-10T09:43:11.001Z,79.40
2023-05-10T09:44:10.979Z,78.19
2023-05-10T09:45:11.004Z,78.66
2023-05-10T09:46:11.059Z,79.84
2023-05-10T09:47:10.926Z,79.32
2023-05-10T09:48:10.943Z,78.39
2023-05-10T09:49:10.901Z,78.44
2023-05-10T09:50:10.905Z,80.05
2023-05-10T09:51:10.875Z,80.83
2023-05-10T09:52:10.910Z,81.33
2023-05-10T09:53:10.847Z,82.51
2023-05-10T09:54:10.847Z,82.75
2023-05-10T09:55:10.818Z,83.29
2023-05-10T09:56:10.841Z,83.73
2023-05-10T09:57:10.790Z,83.72
2023-05-10T09:58:26.318Z,83.83
2023-05-10T09:59:10.766Z,83.66
2023-05-10T10:00:10.767Z,82.05
2023-05-10T10:01:10.809Z,82.09
2023-05-10T10:02:10.758Z,82.60
2023-05-10T10:03:10.743Z,83.10
2023-05-10T10:04:10.739Z,82.62
2023-05-10T10:05:10.754Z,82.36
2023-05-10T10:06:18.660Z,81.60
2023-05-10T10:07:12.086Z,81.25
2023-05-10T10:08:10.691Z,81.84
2023-05-10T10:09:10.655Z,80.70
2023-05-10T10:10:11.039Z,81.52
2023-05-10T10:11:11.021Z,81.55
2023-05-10T10:12:10.637Z,82.13
2023-05-10T10:13:10.626Z,82.40
2023-05-10T10:14:10.614Z,82.32
2023-05-10T10:15:11.079Z,82.47
2023-05-10T10:16:11.080Z,81.51
2023-05-10T10:17:10.588Z,80.50
2023-05-10T10:18:10.612Z,80.43
2023-05-10T10:19:10.554Z,80.87
2023-05-10T10:20:12.115Z,80.18
2023-05-10T10:21:10.555Z,79.80
2023-05-10T10:22:10.526Z,79.27
2023-05-10T10:23:11.045Z,78.94
2023-05-10T10:24:10.502Z,78.88
2023-05-10T10:25:10.481Z,79.19
2023-05-10T10:26:10.505Z,80.33
2023-05-10T10:27:10.474Z,80.65
2023-05-10T10:28:10.470Z,81.58
2023-05-10T10:29:11.056Z,82.50
2023-05-10T10:30:10.512Z,82.75
2023-05-10T10:31:11.082Z,83.01
2023-05-10T10:32:11.047Z,83.08
2023-05-10T10:33:20.599Z,81.39
2023-05-10T10:34:11.375Z,80.96
2023-05-10T10:35:10.348Z,80.59
2023-05-10T10:36:10.366Z,79.83
2023-05-10T10:37:10.352Z,76.71
2023-05-10T10:38:10.337Z,78.42
2023-05-10T10:39:10.320Z,80.42
2023-05-10T10:40:10.312Z,80.66
2023-05-10T10:41:10.282Z,80.22
2023-05-10T10:42:10.318Z,79.54
2023-05-10T10:43:10.266Z,79.50
2023-05-10T10:44:10.273Z,79.77
2023-05-10T10:45:10.236Z,79.73
2023-05-10T10:46:10.257Z,79.73
2023-05-10T10:47:10.321Z,79.15
2023-05-10T10:48:10.224Z,78.54
2023-05-10T10:49:10.183Z,79.05
2023-05-10T10:50:10.935Z,79.47
2023-05-10T10:51:11.529Z,79.76
2023-05-10T10:52:10.161Z,79.73
2023-05-10T10:53:10.209Z,79.42
2023-05-10T10:54:10.154Z,78.03
2023-05-10T10:55:10.150Z,77.39
2023-05-10T10:56:10.214Z,78.44
2023-05-10T10:57:10.093Z,79.08
2023-05-10T10:58:10.846Z,78.72
2023-05-10T10:59:10.076Z,77.50
2023-05-10T11:00:10.086Z,77.40
2023-05-10T11:01:10.122Z,77.97
2023-05-10T11:02:10.085Z,78.06
2023-05-10T11:03:10.126Z,77.80
2023-05-10T11:04:10.098Z,77.16
2023-05-10T11:05:10.062Z,78.10
2023-05-10T11:06:10.097Z,77.76
2023-05-10T11:07:09.984Z,78.44
2023-05-10T11:08:09.992Z,78.16
2023-05-10T11:09:09.954Z,76.99
2023-05-10T11:10:09.964Z,76.89
2023-05-10T11:11:10.091Z,78.70
2023-05-10T11:12:09.963Z,77.24
2023-05-10T11:13:09.930Z,78.38
2023-05-10T11:14:10.070Z,77.87
2023-05-10T11:15:10.064Z,76.80
2023-05-10T11:16:10.091Z,77.80
2023-05-10T11:17:10.160Z,77.46
2023-05-10T11:18:09.960Z,74.76
2023-05-10T11:19:10.049Z,74.00
2023-05-10T11:20:09.861Z,74.02
2023-05-10T11:21:09.812Z,74.42
2023-05-10T11:22:09.987Z,74.88
2023-05-10T11:23:09.808Z,75.68
2023-05-10T11:24:09.810Z,75.79
2023-05-10T11:25:09.970Z,76.75
2023-05-10T11:26:09.762Z,77.17
2023-05-10T11:27:09.751Z,78.26
2023-05-10T11:28:09.744Z,78.00
2023-05-10T11:29:09.738Z,78.01
2023-05-10T11:30:10.094Z,77.31
2023-05-10T11:31:09.801Z,77.16
2023-05-10T11:32:09.701Z,77.86
2023-05-10T11:33:09.808Z,78.36
2023-05-10T11:34:09.686Z,78.33
2023-05-10T11:35:09.661Z,79.18
2023-05-10T11:36:09.658Z,79.17
2023-05-10T11:37:09.615Z,79.92
2023-05-10T11:38:09.638Z,79.44
2023-05-10T11:39:10.084Z,79.38
2023-05-10T11:40:09.632Z,80.13
2023-05-10T11:41:09.576Z,79.92
2023-05-10T11:42:09.589Z,79.71
2023-05-10T11:43:09.552Z,78.31
2023-05-10T11:44:09.636Z,77.37
2023-05-10T11:45:09.540Z,76.29
2023-05-10T11:46:09.554Z,76.36
2023-05-10T11:47:09.503Z,75.97
2023-05-10T11:48:09.534Z,75.26
2023-05-10T11:49:09.483Z,75.38
2023-05-10T11:50:09.521Z,75.72
2023-05-10T11:51:09.591Z,76.14
2023-05-10T11:52:09.470Z,75.69
2023-05-10T11:53:09.434Z,75.38
2023-05-10T11:54:09.456Z,75.74
2023-05-10T11:55:09.426Z,76.15
2023-05-10T11:56:09.425Z,76.47
2023-05-10T11:57:09.395Z,77.50
2023-05-10T11:58:09.393Z,76.99
2023-05-10T11:59:09.482Z,76.64
2023-05-10T12:00:10.113Z,75.97
2023-05-10T12:01:10.119Z,76.45
2023-05-10T12:02:09.773Z,76.84
2023-05-10T12:03:09.406Z,76.51
2023-05-10T12:04:09.494Z,75.80
2023-05-10T12:05:09.335Z,76.84
2023-05-10T12:06:09.307Z,76.64
2023-05-10T12:07:09.306Z,75.31
2023-05-10T12:08:09.280Z,74.30
2023-05-10T12:09:09.291Z,75.16
2023-05-10T12:10:09.262Z,76.31
2023-05-10T12:11:09.229Z,76.78
2023-05-10T12:12:09.216Z,77.33
2023-05-10T12:13:09.217Z,75.34
2023-05-10T12:14:09.199Z,74.99
2023-05-10T12:15:09.182Z,75.62
2023-05-10T12:16:09.193Z,76.06
2023-05-10T12:17:09.178Z,76.16
2023-05-10T12:18:09.210Z,75.61
2023-05-10T12:19:09.227Z,75.43
2023-05-10T12:20:09.157Z,75.07
2023-05-10T12:21:09.115Z,75.09
2023-05-10T12:22:09.120Z,75.16
2023-05-10T12:23:09.087Z,75.80
2023-05-10T12:24:09.103Z,76.89
2023-05-10T12:25:09.060Z,76.83
2023-05-10T12:26:09.072Z,77.23
2023-05-10T12:27:09.110Z,77.18
2023-05-10T12:28:09.063Z,76.46
2023-05-10T12:29:09.004Z,76.44
2023-05-10T12:30:09.015Z,76.53
2023-05-10T12:31:08.985Z,76.49
2023-05-10T12:32:09.124Z,76.20
2023-05-10T12:33:09.039Z,75.81
2023-05-10T12:34:08.976Z,75.41
2023-05-10T12:35:08.932Z,74.58
2023-05-10T12:36:08.935Z,74.18
2023-05-10T12:37:08.933Z,73.67
2023-05-10T12:38:08.922Z,74.56
2023-05-10T12:39:08.931Z,74.97
2023-05-10T12:40:08.916Z,74.86
2023-05-10T12:41:08.915Z,75.37
2023-05-10T12:42:08.882Z,74.29
2023-05-10T12:43:08.853Z,73.61
2023-05-10T12:44:08.868Z,73.87
2023-05-10T12:45:08.854Z,74.89
2023-05-10T12:46:08.884Z,73.63
2023-05-10T12:47:08.825Z,74.14
2023-05-10T12:48:08.826Z,75.83
2023-05-10T12:49:09.770Z,75.18
2023-05-10T12:50:08.800Z,75.99
2023-05-10T12:51:08.754Z,76.75
2023-05-10T12:52:08.764Z,75.79